Flight Track Log - Related Links

Times and Time Zones

All times are in EDT time to prevent confusion due to time zone crossing. See the SWA3206 flight status page for this flight to view local times or setup timezone preferences in your user account.

Time Position Orientation Groundspeed Altitude Reporting Facility
EDT Latitude Longitude Course Direction KTS MPH feet Rate Location/Type
Sun 02:05:56 PM 41.8333 -87.7667 258° West 205 236 3,000  Level Chicago TRACON
Sun 02:07:02 PM 41.8000 -87.8500 242° Southwest 242 278 3,000 1,099 Level Chicago TRACON
Sun 02:08:18 PM 41.7808 -87.9672 258° West 259 298 5,600 2,652 Climbing Chicago Center
Sun 02:09:20 PM 41.7756 -88.0756 266° West 292 336 9,100 3,048 Climbing Chicago Center
Sun 02:10:22 PM 41.7725 -88.1875 268° West 302 348 11,900 2,032 Climbing Chicago Center
Sun 02:11:00 PM 41.6517 -88.6060 258° West  Level Estimated
Sun 02:11:24 PM 41.7700 -88.3058 268° West 317 365 13,300  Level Chicago Center
Sun 02:12:26 PM 41.7678 -88.4264 269° West 326 375 16,000 2,832 Climbing Chicago Center
Sun 02:13:29 PM 41.7489 -88.5769 261° West 345 397 19,200 2,736 Climbing Chicago Center
Sun 02:14:31 PM 41.7239 -88.7036 255° West 355 409 21,700 2,323 Climbing Chicago Center
Sun 02:15:33 PM 41.6978 -88.8350 255° West 367 422 24,000 1,452 Climbing Chicago Center
Sun 02:16:35 PM 41.6703 -88.9725 255° West 385 443 24,700 1,210 Climbing Chicago Center
Sun 02:17:37 PM 41.6322 -89.1614 255° West 438 504 26,500 1,694 Climbing Chicago Center
Sun 02:18:39 PM 41.5992 -89.3225 255° West 451 519 28,200 1,548 Climbing Chicago Center
Sun 02:19:41 PM 41.5656 -89.4839 254° West 454 522 29,700 1,694 Climbing Chicago Center
Sun 02:20:43 PM 41.5336 -89.6425 255° West 457 526 31,700 1,597 Climbing Chicago Center
Sun 02:21:45 PM 41.5000 -89.8033 254° West 453 521 33,000 1,258 Climbing Chicago Center
Sun 02:22:47 PM 41.4594 -89.9986 255° West 453 521 34,300 1,258 Climbing Chicago Center
Sun 02:23:49 PM 41.4258 -90.1581 254° West 451 519 35,600 823 Climbing Chicago Center
Sun 02:24:51 PM 41.3917 -90.3158 254° West 453 521 36,000 192 Climbing Chicago Center
Sun 02:25:54 PM 41.3578 -90.4736 254° West 449 517 36,000  Level Chicago Center
Sun 02:26:56 PM 41.3219 -90.6350 254° West 454 522 36,000  Level Chicago Center
Sun 02:27:58 PM 41.2772 -90.7906 249° West 449 517 36,000  Level Chicago Center
Sun 02:29:00 PM 41.2219 -90.9781 249° West 454 522 36,000  Level Chicago Center
Sun 02:30:02 PM 41.1747 -91.1333 248° West 456 525 36,000  Level Chicago Center
Sun 02:31:04 PM 41.1283 -91.2908 249° West 458 527 36,000  Level Chicago Center
Sun 02:32:06 PM 41.0811 -91.4467 248° West 458 527 36,000  Level Chicago Center
Sun 02:33:08 PM 41.0339 -91.6033 248° West 458 527 36,000  Level Chicago Center
Sun 02:34:10 PM 40.9778 -91.7878 248° West 457 526 36,000  Level Chicago Center
Sun 02:35:12 PM 40.9300 -91.9400 247° West 453 521 36,000  Level Chicago Center
Sun 02:36:14 PM 40.8833 -92.0939 248° West 455 524 36,000  Level Chicago Center
Sun 02:37:16 PM 40.8381 -92.2475 249° West 455 524 36,000  Level Chicago Center
Sun 02:38:18 PM 40.8164 -92.4139 260° West 463 533 36,000  Level Chicago Center
Sun 02:39:20 PM 40.7900 -92.6100 260° West 460 529 36,000  Level Chicago Center
Sun 02:40:23 PM 40.7675 -92.7733 260° West 459 528 36,000  Level Chicago Center
Sun 02:41:25 PM 40.7456 -92.9353 260° West 456 525 36,000 194 Level Chicago Center
Sun 02:42:27 PM 40.7228 -93.0972 260° West 456 525 36,400 871 Climbing Chicago Center
Sun 02:43:29 PM 40.6961 -93.2911 260° West 454 522 37,800 774 Climbing Chicago Center
Sun 02:44:31 PM 40.6722 -93.4522 259° West 454 522 38,000 87 Climbing Chicago Center
Sun 02:45:47 PM 40.6422 -93.6461 259° West 456 525 38,000  Level Minneapolis Center
Sun 02:46:49 PM 40.6203 -93.8039 260° West 452 520 38,000  Level Minneapolis Center
Sun 02:47:51 PM 40.5900 -93.9917 258° West 444 511 38,000  Level Minneapolis Center
Sun 02:48:53 PM 40.5653 -94.1464 258° West 440 506 38,000  Level Minneapolis Center
Sun 02:49:55 PM 40.5383 -94.3011 257° West 439 505 38,000  Level Minneapolis Center
Sun 02:51:09 PM 40.5106 -94.4556 257° West 437 503 38,000  Level Minneapolis Center
Sun 02:52:12 PM 40.4800 -94.6478 258° West 431 496 38,000  Level Minneapolis Center
Sun 02:53:14 PM 40.4525 -94.8003 257° West 429 494 38,000  Level Minneapolis Center
Sun 02:54:16 PM 40.4211 -94.9822 257° West 427 491 38,000  Level Minneapolis Center
Sun 02:55:18 PM 40.3942 -95.1394 257° West 435 501 38,000  Level Minneapolis Center
Sun 02:56:20 PM 40.3656 -95.2953 256° West 437 503 38,000  Level Minneapolis Center
Sun 02:57:22 PM 40.3381 -95.4503 257° West 436 502 38,000  Level Minneapolis Center
Sun 02:58:23 PM 40.3108 -95.6039 257° West 434 499 38,000  Level Minneapolis Center
Sun 02:59:25 PM 40.2842 -95.7556 257° West 429 494 38,000  Level Minneapolis Center
Sun 03:01:29 PM 40.2283 -96.0564 256° West 423 487 38,000  Level Minneapolis Center
Sun 03:02:31 PM 40.1947 -96.2358 256° West 423 487 38,000  Level Minneapolis Center
Sun 03:04:35 PM 40.1297 -96.5314 254° West 422 486 38,000  Level Minneapolis Center
Sun 03:05:36 PM 40.0983 -96.6783 254° West 420 483 38,000  Level Minneapolis Center
Sun 03:06:38 PM 40.0658 -96.8233 254° West 418 481 38,000  Level Minneapolis Center
Sun 03:07:40 PM 40.0342 -96.9703 254° West 419 482 38,000  Level Minneapolis Center
Sun 03:08:42 PM 40.0017 -97.1164 254° West 419 482 38,000  Level Minneapolis Center
Sun 03:09:55 PM 39.9622 -97.2919 254° West 419 482 38,000  Level Minneapolis Center
Sun 03:10:57 PM 39.9253 -97.4572 254° West 421 484 38,000  Level Minneapolis Center
Sun 03:12:11 PM 39.8914 -97.6056 253° West 424 488 38,000  Level Minneapolis Center
Sun 03:13:13 PM 39.8511 -97.7833 254° West 425 489 38,000  Level Minneapolis Center
Sun 03:14:15 PM 39.8172 -97.9258 253° West 417 480 38,000  Level Minneapolis Center
Sun 03:15:16 PM 39.7831 -98.0694 253° West 415 478 38,000  Level Minneapolis Center
Sun 03:16:18 PM 39.7442 -98.2431 254° West 416 479 38,000  Level Minneapolis Center
Sun 03:17:20 PM 39.7100 -98.3878 253° West 417 480 38,000  Level Minneapolis Center
Sun 03:18:21 PM 39.6756 -98.5344 253° West 421 484 38,000  Level Minneapolis Center
Sun 03:19:23 PM 39.6408 -98.6797 253° West 422 486 38,000  Level Minneapolis Center
Sun 03:20:25 PM 39.6053 -98.8269 253° West 425 489 38,000  Level Minneapolis Center
Sun 03:21:26 PM 39.5703 -98.9750 253° West 427 491 38,000  Level Minneapolis Center
Sun 03:22:28 PM 39.5333 -99.1222 252° West 428 493 38,000  Level Minneapolis Center
Sun 03:23:29 PM 39.5058 -99.2386 253° West 425 489 38,000  Level Minneapolis Center
Sun 03:23:44 PM 39.4847 -99.3247 252° West 420 483 38,000  Level Denver Center
Sun 03:24:46 PM 39.4531 -99.4500 252° West 408 470 38,000  Level Denver Center
Sun 03:25:48 PM 39.4153 -99.6033 252° West 402 463 38,000  Level Denver Center
Sun 03:26:50 PM 39.3822 -99.7367 252° West 404 465 38,000  Level Denver Center
Sun 03:27:51 PM 39.3431 -99.8911 252° West 406 467 38,000  Level Denver Center
Sun 03:28:53 PM 39.3108 -100.0192 252° West 396 456 38,000  Level Denver Center
Sun 03:29:55 PM 39.2725 -100.1706 252° West 396 456 38,000  Level Denver Center
Sun 03:30:57 PM 39.2431 -100.2986 254° West 390 449 38,000  Level Denver Center
Sun 03:31:59 PM 39.2117 -100.4494 255° West 390 449 38,000  Level Denver Center
Sun 03:33:01 PM 39.1844 -100.5797 255° West 392 451 38,000  Level Denver Center
Sun 03:34:03 PM 39.1567 -100.7089 255° West 391 450 38,000  Level Denver Center
Sun 03:35:05 PM 39.1233 -100.8603 254° West 393 452 38,000  Level Denver Center
Sun 03:36:07 PM 39.0953 -100.9917 255° West 397 457 38,000  Level Denver Center
Sun 03:37:09 PM 39.0622 -101.1489 255° West 405 466 38,000  Level Denver Center
Sun 03:38:11 PM 39.0292 -101.2939 254° West 396 456 38,000  Level Denver Center
Sun 03:39:13 PM 39.0006 -101.4256 254° West 400 460 38,000  Level Denver Center
Sun 03:40:15 PM 38.9722 -101.5558 254° West 398 458 38,000  Level Denver Center
Sun 03:41:17 PM 38.9378 -101.7092 254° West 400 460 38,000  Level Denver Center
Sun 03:42:19 PM 38.9083 -101.8408 254° West 403 464 38,000  Level Denver Center
Sun 03:43:21 PM 38.8683 -101.9928 251° West 405 466 38,000  Level Denver Center
Sun 03:44:23 PM 38.8289 -102.1200 248° West 403 464 38,000  Level Denver Center
Sun 03:45:25 PM 38.7836 -102.2686 249° West 402 463 38,000  Level Denver Center
Sun 03:46:27 PM 38.7447 -102.3956 249° West 401 461 38,000  Level Denver Center
Sun 03:47:29 PM 38.7003 -102.5422 249° West 399 459 38,000  Level Denver Center
Sun 03:48:31 PM 38.6617 -102.6669 248° West 395 455 38,000  Level Denver Center
Sun 03:49:33 PM 38.6206 -102.8006 249° West 397 457 38,000  Level Denver Center
Sun 03:50:35 PM 38.5797 -102.9322 248° West 396 456 38,000  Level Denver Center
Sun 03:51:36 PM 38.5450 -103.0419 248° West 397 457 38,000  Level Denver Center
Sun 03:52:51 PM 38.4933 -103.2089 248° West 395 455 38,000  Level Denver Center
Sun 03:53:53 PM 38.4397 -103.3753 248° West 398 458 38,000  Level Denver Center
Sun 03:54:55 PM 38.3950 -103.5192 248° West 401 461 38,000  Level Denver Center
Sun 03:55:57 PM 38.3553 -103.6442 248° West 400 460 38,000  Level Denver Center
Sun 03:56:59 PM 38.3147 -103.7678 247° West 399 459 38,000  Level Denver Center
Sun 03:58:00 PM 38.2756 -103.8908 248° West 395 455 38,000  Level Denver Center
Sun 03:59:03 PM 38.2286 -104.0367 248° West 400 460 38,000  Level Denver Center
Sun 04:00:05 PM 38.1819 -104.1817 248° West 400 460 38,000  Level Denver Center
Sun 04:01:06 PM 38.1408 -104.3047 247° West 398 458 38,000  Level Denver Center
Sun 04:02:08 PM 38.0942 -104.4478 248° West 394 453 38,000  Level Denver Center
Sun 04:03:10 PM 38.0539 -104.5694 247° West 393 452 38,000  Level Denver Center
Sun 04:04:12 PM 38.0072 -104.7117 247° West 393 452 38,000  Level Denver Center
Sun 04:05:14 PM 37.9667 -104.8319 247° West 390 449 38,000  Level Denver Center
Sun 04:06:16 PM 37.9200 -104.9725 247° West 388 447 38,000  Level Denver Center
Sun 04:07:18 PM 37.8803 -105.0925 247° West 387 445 38,000  Level Denver Center
Sun 04:08:20 PM 37.8328 -105.2331 247° West 389 448 38,000  Level Denver Center
Sun 04:09:22 PM 37.7917 -105.3536 247° West 390 449 38,000  Level Denver Center
Sun 04:10:24 PM 37.7431 -105.4947 246° West 394 453 38,000  Level Denver Center
Sun 04:11:26 PM 37.6992 -105.6192 246° West 402 463 38,000  Level Denver Center
Sun 04:12:28 PM 37.6506 -105.7639 247° West 401 461 38,000  Level Denver Center
Sun 04:13:30 PM 37.6089 -105.8872 247° West 400 460 38,000  Level Denver Center
Sun 04:14:32 PM 37.5661 -106.0086 246° West 397 457 38,000  Level Denver Center
Sun 04:15:33 PM 37.5158 -106.1514 246° West 394 453 38,000  Level Denver Center
Sun 04:16:35 PM 37.4739 -106.2719 246° West 393 452 38,000  Level Denver Center
Sun 04:17:37 PM 37.4250 -106.4125 246° West 392 451 38,000  Level Denver Center
Sun 04:18:39 PM 37.3828 -106.5314 246° West 389 448 38,000  Level Denver Center
Sun 04:19:41 PM 37.3331 -106.6719 246° West 392 451 38,000  Level Denver Center
Sun 04:20:43 PM 37.2914 -106.7919 246° West 393 452 38,000  Level Denver Center
Sun 04:21:45 PM 37.2417 -106.9333 246° West 397 457 38,000  Level Denver Center
Sun 04:22:47 PM 37.1983 -107.0536 246° West 397 457 38,000  Level Denver Center
Sun 04:23:49 PM 37.1467 -107.1942 245° Southwest 398 458 38,000  Level Denver Center
Sun 04:24:51 PM 37.1036 -107.3147 246° West 396 456 38,000  Level Denver Center
Sun 04:26:05 PM 37.0528 -107.4542 245° Southwest 396 456 38,000  Level Denver Center
Sun 04:27:08 PM 37.0028 -107.5906 245° Southwest 390 449 38,000  Level Denver Center
Sun 04:28:10 PM 36.9519 -107.7297 245° Southwest 394 453 38,000  Level Denver Center
Sun 04:29:12 PM 36.9081 -107.8469 245° Southwest 391 450 38,000  Level Denver Center
Sun 04:30:13 PM 36.8725 -107.9464 246° West 392 451 38,000  Level Denver Center
Sun 04:31:15 PM 36.8147 -108.1050 246° West 392 451 38,000  Level Denver Center
Sun 04:32:17 PM 36.7631 -108.2397 244° Southwest 389 448 38,000  Level Denver Center
Sun 04:33:19 PM 36.7194 -108.3572 245° Southwest 389 448 38,000  Level Denver Center
Sun 04:34:21 PM 36.6675 -108.4964 245° Southwest 395 455 38,000  Level Denver Center
Sun 04:35:35 PM 36.6233 -108.6142 245° Southwest 395 455 38,000  Level Denver Center
Sun 04:36:38 PM 36.5633 -108.7714 245° Southwest 395 455 38,000  Level Denver Center
Sun 04:37:40 PM 36.5183 -108.8892 245° Southwest 395 455 38,000  Level Denver Center
Sun 04:38:41 PM 36.4664 -109.0242 244° Southwest 392 451 38,000  Level Denver Center
Sun 04:39:43 PM 36.4231 -109.1394 245° Southwest 388 447 38,000  Level Denver Center
Sun 04:40:45 PM 36.3717 -109.2731 244° Southwest 388 447 38,000  Level Denver Center
Sun 04:41:47 PM 36.3269 -109.3875 244° Southwest 388 447 38,000  Level Denver Center
Sun 04:42:49 PM 36.2753 -109.5203 244° Southwest 385 443 38,000  Level Denver Center
Sun 04:43:51 PM 36.2308 -109.6358 245° Southwest 387 445 38,000  Level Denver Center
Sun 04:44:53 PM 36.1781 -109.7700 244° Southwest 389 448 38,000  Level Denver Center
Sun 04:45:55 PM 36.1319 -109.8872 244° Southwest 394 453 38,000  Level Denver Center
Sun 04:46:57 PM 36.0789 -110.0239 244° Southwest 396 456 38,000  Level Denver Center
Sun 04:47:59 PM 36.0350 -110.1308 243° Southwest 394 453 38,000  Level Denver Center
Sun 04:49:01 PM 35.9872 -110.2528 244° Southwest 394 453 38,000  Level Denver Center
Sun 04:50:03 PM 35.9297 -110.3978 244° Southwest 393 452 38,000  Level Denver Center
Sun 04:51:04 PM 35.8819 -110.5181 244° Southwest 391 450 38,000  Level Denver Center
Sun 04:52:06 PM 35.8325 -110.6389 243° Southwest 393 452 38,000  Level Denver Center
Sun 04:53:08 PM 35.7847 -110.7586 244° Southwest 391 450 38,000  Level Denver Center
Sun 04:54:16 PM 35.7297 -110.8867 242° Southwest 388 447 38,000  Level Albuquerque Center
Sun 04:55:18 PM 35.6758 -111.0186 243° Southwest 386 444 38,000  Level Albuquerque Center
Sun 04:56:20 PM 35.6317 -111.1328 245° Southwest 387 445 38,000  Level Albuquerque Center
Sun 04:57:22 PM 35.5753 -111.2625 242° Southwest 386 444 38,000  Level Albuquerque Center
Sun 04:58:24 PM 35.5283 -111.3756 243° Southwest 388 447 38,000  Level Albuquerque Center
Sun 04:59:26 PM 35.4794 -111.5006 244° Southwest 398 458 38,000  Level Albuquerque Center
Sun 05:00:28 PM 35.4314 -111.6183 243° Southwest 392 451 38,000  Level Albuquerque Center
Sun 05:01:30 PM 35.3822 -111.7342 243° Southwest 386 444 38,000  Level Albuquerque Center
Sun 05:02:32 PM 35.3244 -111.8744 243° Southwest 385 443 38,000  Level Albuquerque Center
Sun 05:03:34 PM 35.2761 -111.9906 243° Southwest 384 442 38,000  Level Albuquerque Center
Sun 05:04:36 PM 35.2283 -112.1056 243° Southwest 382 440 38,000  Level Albuquerque Center
Sun 05:05:37 PM 35.1794 -112.2197 242° Southwest 380 437 38,000  Level Albuquerque Center
Sun 05:06:39 PM 35.1314 -112.3336 243° Southwest 379 436 38,000  Level Albuquerque Center
Sun 05:08:43 PM 35.0239 -112.5864 243° Southwest 380 437 38,000  Level Albuquerque Center
Sun 05:09:45 PM 34.9756 -112.7006 243° Southwest 379 436 38,000  Level Albuquerque Center
Sun 05:10:47 PM 34.9267 -112.8139 242° Southwest 377 434 38,000  Level Albuquerque Center
Sun 05:11:49 PM 34.8789 -112.9269 243° Southwest 376 433 38,000 -290 Level Albuquerque Center
Sun 05:12:51 PM 34.8289 -113.0394 242° Southwest 377 434 37,400 -726 Descending Albuquerque Center
Sun 05:13:53 PM 34.7797 -113.1539 242° Southwest 381 438 36,500 -871 Descending Albuquerque Center
Sun 05:14:55 PM 34.7294 -113.2697 242° Southwest 385 443 35,600 -1,016 Descending Albuquerque Center
Sun 05:15:57 PM 34.6692 -113.4072 242° Southwest 385 443 34,400 -774 Descending Albuquerque Center
Sun 05:16:59 PM 34.6192 -113.5200 242° Southwest 383 441 34,000 -194 Descending Albuquerque Center
Sun 05:18:01 PM 34.5694 -113.6333 242° Southwest 381 438 34,000  Level Albuquerque Center
Sun 05:19:03 PM 34.5128 -113.7606 242° Southwest 376 433 34,000  Level Albuquerque Center
Sun 05:20:05 PM 34.4642 -113.8733 242° Southwest 376 433 34,000  Level Albuquerque Center
Sun 05:21:07 PM 34.4147 -113.9853 242° Southwest 376 433 34,000 -48 Level Albuquerque Center
Sun 05:22:09 PM 34.3653 -114.0956 242° Southwest 373 429 33,900 -714 Descending Albuquerque Center
Sun 05:24:12 PM 34.2689 -114.3103 242° Southwest 361 415 31,800 -1,005 Descending Albuquerque Center
Sun 05:25:14 PM 34.2231 -114.4139 242° Southwest 355 409 30,800 -1,091 Descending Albuquerque Center
Sun 05:25:40 PM 34.1975 -114.4689 241° Southwest 351 404 30,200 -1,091 Descending Los Angeles Center
Sun 05:26:42 PM 34.1517 -114.5725 242° Southwest 350 403 29,200 -968 Descending Los Angeles Center
Sun 05:27:44 PM 34.1067 -114.6731 242° Southwest 342 394 28,200 -581 Descending Los Angeles Center
Sun 05:28:46 PM 34.0617 -114.7722 241° Southwest 338 389 28,000 -97 Descending Los Angeles Center
Sun 05:29:48 PM 34.0181 -114.8753 243° Southwest 345 397 28,000  Level Los Angeles Center
Sun 05:30:50 PM 33.9603 -115.0033 241° Southwest 360 414 28,000  Level Los Angeles Center
Sun 05:31:52 PM 33.9125 -115.1108 242° Southwest 363 418 28,000  Level Los Angeles Center
Sun 05:32:54 PM 33.8647 -115.2186 242° Southwest 365 420 28,000  Level Los Angeles Center
Sun 05:33:57 PM 33.8169 -115.3272 242° Southwest 368 423 28,000  Level Los Angeles Center
Sun 05:34:59 PM 33.7683 -115.4339 241° Southwest 366 421 28,000  Level Los Angeles Center
Sun 05:36:01 PM 33.7094 -115.5650 242° Southwest 371 427 28,000 -48 Level Los Angeles Center
Sun 05:37:03 PM 33.6600 -115.6733 241° Southwest 372 428 27,900 -194 Descending Los Angeles Center
Sun 05:38:05 PM 33.6117 -115.7789 241° Southwest 365 420 27,600 -1,210 Descending Los Angeles Center
Sun 05:39:07 PM 33.5567 -115.8719 235° Southwest 348 400 25,400 -1,742 Descending Los Angeles Center
Sun 05:40:09 PM 33.5028 -115.9642 235° Southwest 340 391 24,000 -613 Descending Los Angeles Center
Sun 05:41:24 PM 33.4294 -116.0933 236° Southwest 337 388 24,000 -613 Level Los Angeles Center
Sun 05:42:26 PM 33.3756 -116.1850 235° Southwest 338 389 22,600 -1,935 Descending Los Angeles Center
Sun 05:43:28 PM 33.3111 -116.2650 226° Southwest 340 391 20,000 -2,565 Descending Los Angeles Center
Sun 05:44:30 PM 33.2236 -116.3167 206° Southwest 348 400 17,300 -2,323 Descending Los Angeles Center
Sun 05:45:32 PM 33.1369 -116.3669 206° Southwest 348 400 15,200 -2,226 Descending Los Angeles Center
Sun 05:46:34 PM 33.0403 -116.4233 206° Southwest 335 386 12,700 -1,548 Descending Los Angeles Center
Sun 05:47:36 PM 32.9633 -116.4678 206° Southwest 316 364 12,000 -629 Descending Los Angeles Center
Sun 05:48:38 PM 32.8917 -116.5100 206° Southwest 296 341 11,400 -810 Descending Los Angeles Center
Sun 05:49:42 PM 32.8306 -116.5608 215° Southwest 296 341 10,300 -968 Descending Los Angeles Center
Sun 05:50:42 PM 32.7967 -116.6308 240° Southwest 258 297 9,400 -1,171 Descending Los Angeles Center
Sun 05:51:45 PM 32.7589 -116.7133 241° Southwest 241 277 7,900 -1,190 Descending Los Angeles Center
Sun 05:52:48 PM 32.7319 -116.7825 245° Southwest 233 268 6,900 -1,032 Descending Los Angeles Center
Sun 05:54:51 PM 32.6800 -116.9128 245° Southwest 219 252 4,700 -1,109 Descending Los Angeles Center
Sun 05:55:52 PM 32.6833 -116.9833 273° West 203 234 3,500 -1,140 Descending Southern California TRACON
Sun 05:56:52 PM 32.7000 -117.0500 287° West 185 213 2,400 -1,000 Descending Southern California TRACON
Sun 05:57:58 PM 32.7167 -117.1000 292° West 163 188 1,400 -850 Descending Southern California TRACON
Sun 05:58:59 PM 32.7167 -117.1500 270° West 142 163 600 -528 Descending Southern California TRACON
Sun 06:00:03 PM 32.7344 -117.1883 299° West 151 174 300 -281 Descending Los Angeles Center
Sun 06:02:00 PM 32.7333 -117.1833 281° West  Level FlightAware Approximate

Login

Don't have an account? Register now (free) for customized features, flight alerts, and more!